createdAt,value
2022-08-30T00:00:07.337Z,0.00
2022-08-30T00:01:07.327Z,0.00
2022-08-30T00:02:07.318Z,0.00
2022-08-30T00:03:07.429Z,0.00
2022-08-30T00:04:07.286Z,0.00
2022-08-30T00:05:07.265Z,0.00
2022-08-30T00:06:07.265Z,0.00
2022-08-30T00:07:07.247Z,0.00
2022-08-30T00:08:07.236Z,0.00
2022-08-30T00:09:07.215Z,0.00
2022-08-30T00:10:07.205Z,0.00
2022-08-30T00:11:07.196Z,0.00
2022-08-30T00:12:07.184Z,0.00
2022-08-30T00:13:07.165Z,0.00
2022-08-30T00:14:07.152Z,0.00
2022-08-30T00:15:07.134Z,0.00
2022-08-30T00:16:07.242Z,0.00
2022-08-30T00:17:07.115Z,0.00
2022-08-30T00:18:07.095Z,0.00
2022-08-30T00:19:07.084Z,0.00
2022-08-30T00:20:07.084Z,0.00
2022-08-30T00:21:07.066Z,0.00
2022-08-30T00:22:07.167Z,0.00
2022-08-30T00:23:07.033Z,0.00
2022-08-30T00:24:07.014Z,0.00
2022-08-30T00:25:07.003Z,0.00
2022-08-30T00:26:07.004Z,0.00
2022-08-30T00:27:06.974Z,0.00
2022-08-30T00:28:06.966Z,0.00
2022-08-30T00:29:06.954Z,0.00
2022-08-30T00:30:06.953Z,0.00
2022-08-30T00:31:07.045Z,0.00
2022-08-30T00:32:06.913Z,0.00
2022-08-30T00:33:06.938Z,0.00
2022-08-30T00:34:06.894Z,0.00
2022-08-30T00:35:06.873Z,0.00
2022-08-30T00:36:06.874Z,0.00
2022-08-30T00:37:06.862Z,0.00
2022-08-30T00:38:06.843Z,0.00
2022-08-30T00:39:06.815Z,0.00
2022-08-30T00:40:06.883Z,0.00
2022-08-30T00:41:06.807Z,0.00
2022-08-30T00:42:06.786Z,0.00
2022-08-30T00:43:06.777Z,0.00
2022-08-30T00:44:06.757Z,0.00
2022-08-30T00:45:06.744Z,0.00
2022-08-30T00:46:06.753Z,0.00
2022-08-30T00:47:06.718Z,0.00
2022-08-30T00:48:06.714Z,0.00
2022-08-30T00:49:06.705Z,0.00
2022-08-30T00:50:06.688Z,0.00
2022-08-30T00:51:06.672Z,0.00
2022-08-30T00:52:06.670Z,0.00
2022-08-30T00:53:06.644Z,0.00
2022-08-30T00:54:06.625Z,0.00
2022-08-30T00:55:06.611Z,0.00
2022-08-30T00:56:06.615Z,0.00
2022-08-30T00:57:06.585Z,0.00
2022-08-30T00:58:06.585Z,0.00
2022-08-30T00:59:06.562Z,0.00
2022-08-30T01:00:06.544Z,0.00
2022-08-30T01:01:06.596Z,0.00
2022-08-30T01:02:06.515Z,0.00
2022-08-30T01:03:06.508Z,0.00
2022-08-30T01:04:06.505Z,0.00
2022-08-30T01:05:06.474Z,0.00
2022-08-30T01:06:06.473Z,0.00
2022-08-30T01:07:06.454Z,0.00
2022-08-30T01:08:06.484Z,0.00
2022-08-30T01:09:06.433Z,0.00
2022-08-30T01:10:06.436Z,0.00
2022-08-30T01:11:06.402Z,0.00
2022-08-30T01:12:06.490Z,0.00
2022-08-30T01:13:06.373Z,0.00
2022-08-30T01:14:06.365Z,0.00
2022-08-30T01:15:06.363Z,0.00
2022-08-30T01:16:06.416Z,0.00
2022-08-30T01:17:06.323Z,0.00
2022-08-30T01:18:07.932Z,0.00
2022-08-30T01:19:06.303Z,0.00
2022-08-30T01:20:06.293Z,0.00
2022-08-30T01:21:06.273Z,0.00
2022-08-30T01:22:06.262Z,0.00
2022-08-30T01:23:06.271Z,0.00
2022-08-30T01:24:06.225Z,0.00
2022-08-30T01:25:08.261Z,0.00
2022-08-30T01:26:06.214Z,0.00
2022-08-30T01:27:06.193Z,0.00
2022-08-30T01:28:06.184Z,0.00
2022-08-30T01:29:06.166Z,0.00
2022-08-30T01:30:06.173Z,0.00
2022-08-30T01:31:06.344Z,0.00
2022-08-30T01:32:06.123Z,0.00
2022-08-30T01:33:06.132Z,0.00
2022-08-30T01:34:06.092Z,0.00
2022-08-30T01:35:06.133Z,0.00
2022-08-30T01:36:06.082Z,0.00
2022-08-30T01:37:06.084Z,0.00
2022-08-30T01:38:06.042Z,0.00
2022-08-30T01:39:06.033Z,0.00
2022-08-30T01:40:06.075Z,0.00
2022-08-30T01:41:06.011Z,0.00
2022-08-30T01:42:05.992Z,0.00
2022-08-30T01:43:05.991Z,0.00
2022-08-30T01:44:05.972Z,0.00
2022-08-30T01:45:05.964Z,0.00
2022-08-30T01:46:06.030Z,0.00
2022-08-30T01:47:05.942Z,0.00
2022-08-30T01:48:06.727Z,0.00
2022-08-30T01:49:05.911Z,0.00
2022-08-30T01:50:05.902Z,0.00
2022-08-30T01:51:05.875Z,0.00
2022-08-30T01:52:05.862Z,0.00
2022-08-30T01:53:05.859Z,0.00
2022-08-30T01:54:05.847Z,0.00
2022-08-30T01:55:05.831Z,0.00
2022-08-30T01:56:05.814Z,0.00
2022-08-30T01:57:05.802Z,0.00
2022-08-30T01:58:05.791Z,0.00
2022-08-30T01:59:05.790Z,0.00
2022-08-30T02:00:05.762Z,0.00
2022-08-30T02:01:05.798Z,0.00
2022-08-30T02:02:05.740Z,0.00
2022-08-30T02:03:05.721Z,0.00
2022-08-30T02:04:05.788Z,0.00
2022-08-30T02:05:05.698Z,0.00
2022-08-30T02:06:05.680Z,0.00
2022-08-30T02:07:05.685Z,0.00
2022-08-30T02:08:05.648Z,0.00
2022-08-30T02:09:05.651Z,0.00
2022-08-30T02:10:05.631Z,0.00
2022-08-30T02:11:05.619Z,0.00
2022-08-30T02:12:05.592Z,0.00
2022-08-30T02:13:05.591Z,0.00
2022-08-30T02:14:05.601Z,0.00
2022-08-30T02:15:05.570Z,0.00
2022-08-30T02:16:05.550Z,0.00
2022-08-30T02:17:05.601Z,0.00
2022-08-30T02:18:05.520Z,0.00
2022-08-30T02:19:05.570Z,0.00
2022-08-30T02:20:05.489Z,0.00
2022-08-30T02:21:05.489Z,0.00
2022-08-30T02:22:05.492Z,0.00
2022-08-30T02:23:05.468Z,0.00
2022-08-30T02:24:05.510Z,0.00
2022-08-30T02:25:05.439Z,0.00
2022-08-30T02:26:05.409Z,0.00
2022-08-30T02:27:05.408Z,0.00
2022-08-30T02:28:05.399Z,0.00
2022-08-30T02:29:05.398Z,0.00
2022-08-30T02:30:05.368Z,0.00
2022-08-30T02:31:05.409Z,0.00
2022-08-30T02:32:05.361Z,0.00
2022-08-30T02:33:05.339Z,0.00
2022-08-30T02:34:05.327Z,0.00
2022-08-30T02:35:05.298Z,0.00
2022-08-30T02:36:05.280Z,0.00
2022-08-30T02:37:05.272Z,0.00
2022-08-30T02:38:05.262Z,0.00
2022-08-30T02:39:05.259Z,0.00
2022-08-30T02:40:05.267Z,0.00
2022-08-30T02:41:05.239Z,0.00
2022-08-30T02:42:05.198Z,0.00
2022-08-30T02:43:05.188Z,0.00
2022-08-30T02:44:05.191Z,0.00
2022-08-30T02:45:05.168Z,0.00
2022-08-30T02:46:05.177Z,0.00
2022-08-30T02:47:05.146Z,0.00
2022-08-30T02:48:05.128Z,0.00
2022-08-30T02:49:29.869Z,0.00
2022-08-30T02:50:06.098Z,0.00
2022-08-30T02:51:05.102Z,0.00
2022-08-30T02:52:05.072Z,0.00
2022-08-30T02:53:05.077Z,0.00
2022-08-30T02:54:05.058Z,0.00
2022-08-30T02:55:05.038Z,0.00
2022-08-30T02:56:05.030Z,0.00
2022-08-30T02:57:05.281Z,0.00
2022-08-30T02:58:04.987Z,0.00
2022-08-30T02:59:05.007Z,0.00
2022-08-30T03:00:04.978Z,0.00
2022-08-30T03:01:05.003Z,0.00
2022-08-30T03:02:04.949Z,0.00
2022-08-30T03:03:04.934Z,0.00
2022-08-30T03:04:04.976Z,0.00
2022-08-30T03:05:04.950Z,0.00
2022-08-30T03:06:04.886Z,0.00
2022-08-30T03:07:04.886Z,0.00
2022-08-30T03:08:04.862Z,0.00
2022-08-30T03:09:04.861Z,0.00
2022-08-30T03:10:04.852Z,0.00
2022-08-30T03:11:04.839Z,0.00
2022-08-30T03:12:04.848Z,0.00
2022-08-30T03:13:04.816Z,0.00
2022-08-30T03:14:04.785Z,0.00
2022-08-30T03:15:04.785Z,0.00
2022-08-30T03:16:04.824Z,0.00
2022-08-30T03:17:04.760Z,0.00
2022-08-30T03:18:04.740Z,0.00
2022-08-30T03:19:04.730Z,0.00
2022-08-30T03:20:04.782Z,0.00
2022-08-30T03:21:04.705Z,0.00
2022-08-30T03:22:04.676Z,0.00
2022-08-30T03:23:04.683Z,0.00
2022-08-30T03:24:04.656Z,0.00
2022-08-30T03:25:04.646Z,0.00
2022-08-30T03:26:04.626Z,0.00
2022-08-30T03:27:04.614Z,0.00
2022-08-30T03:28:04.615Z,0.00
2022-08-30T03:29:04.597Z,0.00
2022-08-30T03:30:04.574Z,0.00
2022-08-30T03:31:04.564Z,0.00
2022-08-30T03:32:04.589Z,0.00
2022-08-30T03:33:04.553Z,0.00
2022-08-30T03:34:04.544Z,0.00
2022-08-30T03:35:04.515Z,0.00
2022-08-30T03:36:04.494Z,0.00
2022-08-30T03:37:04.495Z,0.00
2022-08-30T03:38:04.484Z,0.00
2022-08-30T03:39:04.486Z,0.00
2022-08-30T03:40:04.482Z,0.00
2022-08-30T03:41:04.438Z,0.00
2022-08-30T03:42:04.432Z,0.00
2022-08-30T03:43:04.414Z,0.00
2022-08-30T03:44:04.401Z,4.00
2022-08-30T03:45:04.374Z,4.00
2022-08-30T03:46:04.403Z,0.00
2022-08-30T03:47:04.370Z,0.00
2022-08-30T03:48:04.353Z,4.00
2022-08-30T03:49:04.333Z,0.00
2022-08-30T03:50:04.315Z,4.00
2022-08-30T03:51:04.955Z,0.00
2022-08-30T03:52:04.292Z,4.00
2022-08-30T03:53:04.294Z,4.00
2022-08-30T03:54:04.262Z,4.00
2022-08-30T03:55:04.253Z,8.00
2022-08-30T03:56:04.232Z,8.00
2022-08-30T03:57:04.233Z,8.00
2022-08-30T03:58:04.222Z,8.00
2022-08-30T03:59:04.201Z,8.00
2022-08-30T04:00:04.182Z,12.00
2022-08-30T04:01:04.211Z,12.00
2022-08-30T04:02:04.206Z,16.00
2022-08-30T04:03:04.162Z,20.00
2022-08-30T04:04:04.123Z,20.00
2022-08-30T04:05:04.121Z,24.00
2022-08-30T04:06:04.113Z,32.00
2022-08-30T04:07:04.092Z,36.00
2022-08-30T04:08:04.090Z,36.00
2022-08-30T04:09:04.070Z,44.00
2022-08-30T04:10:04.064Z,48.00
2022-08-30T04:11:04.988Z,52.00
2022-08-30T04:12:04.025Z,60.00
2022-08-30T04:13:04.028Z,68.00
2022-08-30T04:14:04.000Z,72.00
2022-08-30T04:15:04.001Z,80.00
2022-08-30T04:16:04.010Z,88.00
2022-08-30T04:17:03.970Z,96.00
2022-08-30T04:18:03.953Z,112.00
2022-08-30T04:19:03.940Z,124.00
2022-08-30T04:20:03.933Z,140.00
2022-08-30T04:21:03.914Z,148.00
2022-08-30T04:22:03.900Z,164.00
2022-08-30T04:23:03.892Z,176.00
2022-08-30T04:24:03.874Z,192.00
2022-08-30T04:25:03.850Z,200.00
2022-08-30T04:26:03.840Z,208.00
2022-08-30T04:27:03.840Z,220.00
2022-08-30T04:28:03.830Z,232.00
2022-08-30T04:29:03.799Z,248.00
2022-08-30T04:30:03.796Z,264.00
2022-08-30T04:31:03.780Z,276.00
2022-08-30T04:32:03.836Z,288.00
2022-08-30T04:33:03.758Z,300.00
2022-08-30T04:34:03.730Z,312.00
2022-08-30T04:35:03.731Z,328.00
2022-08-30T04:36:03.719Z,344.00
2022-08-30T04:37:03.701Z,364.00
2022-08-30T04:38:03.688Z,384.00
2022-08-30T04:39:03.676Z,412.00
2022-08-30T04:40:03.686Z,440.00
2022-08-30T04:41:03.649Z,464.00
2022-08-30T04:42:03.628Z,484.00
2022-08-30T04:43:03.638Z,512.00
2022-08-30T04:44:03.616Z,568.00
2022-08-30T04:45:03.605Z,636.00
2022-08-30T04:46:03.649Z,708.00
2022-08-30T04:47:03.571Z,760.00
2022-08-30T04:48:03.558Z,808.00
2022-08-30T04:49:03.538Z,856.00
2022-08-30T04:50:03.528Z,908.00
2022-08-30T04:51:03.517Z,972.00
2022-08-30T04:52:03.498Z,1028.00
2022-08-30T04:53:03.509Z,1068.00
2022-08-30T04:54:03.479Z,1092.00
2022-08-30T04:55:03.475Z,1064.00
2022-08-30T04:56:03.448Z,1016.00
2022-08-30T04:57:03.457Z,984.00
2022-08-30T04:58:03.437Z,992.00
2022-08-30T04:59:03.408Z,1024.00
2022-08-30T05:00:03.495Z,1112.00
2022-08-30T05:01:03.423Z,1236.00
2022-08-30T05:02:03.415Z,1316.00
2022-08-30T05:03:03.367Z,1384.00
2022-08-30T05:04:03.346Z,1456.00
2022-08-30T05:05:03.335Z,1504.00
2022-08-30T05:06:03.326Z,1516.00
2022-08-30T05:07:03.313Z,1560.00
2022-08-30T05:08:03.297Z,1632.00
2022-08-30T05:09:03.276Z,2068.00
2022-08-30T05:10:04.972Z,2556.00
2022-08-30T05:11:03.246Z,3080.00
2022-08-30T05:12:03.246Z,3844.00
2022-08-30T05:13:03.249Z,7392.00
2022-08-30T05:14:03.215Z,12000.00
2022-08-30T05:15:03.216Z,14272.00
2022-08-30T05:16:03.260Z,13312.00
2022-08-30T05:17:03.188Z,8204.00
2022-08-30T05:18:03.159Z,7192.00
2022-08-30T05:19:03.151Z,11744.00
2022-08-30T05:20:03.133Z,20928.00
2022-08-30T05:21:03.130Z,24800.00
2022-08-30T05:22:03.117Z,25536.00
2022-08-30T05:23:03.102Z,20416.00
2022-08-30T05:24:03.089Z,11196.00
2022-08-30T05:25:03.068Z,8912.00
2022-08-30T05:26:03.057Z,11904.00
2022-08-30T05:27:03.065Z,19456.00
2022-08-30T05:28:03.052Z,24704.00
2022-08-30T05:29:03.018Z,22368.00
2022-08-30T05:30:02.998Z,15392.00
2022-08-30T05:31:03.023Z,10448.00
2022-08-30T05:32:02.978Z,11644.00
2022-08-30T05:33:02.967Z,10912.00
2022-08-30T05:34:02.946Z,9496.00
2022-08-30T05:35:02.932Z,14944.00
2022-08-30T05:36:02.939Z,20320.00
2022-08-30T05:37:02.918Z,7500.00
2022-08-30T05:38:02.925Z,3884.00
2022-08-30T05:39:02.887Z,3692.00
2022-08-30T05:40:02.934Z,3716.00
2022-08-30T05:41:07.826Z,3404.00
2022-08-30T05:42:03.857Z,3980.00
2022-08-30T05:43:02.822Z,4540.00
2022-08-30T05:44:02.842Z,4960.00
2022-08-30T05:45:02.822Z,5732.00
2022-08-30T05:46:02.808Z,3880.00
2022-08-30T05:47:02.793Z,3448.00
2022-08-30T05:48:02.767Z,3404.00
2022-08-30T05:49:02.747Z,3112.00
2022-08-30T05:50:02.738Z,3100.00
2022-08-30T05:51:02.717Z,3120.00
2022-08-30T05:52:02.738Z,3192.00
2022-08-30T05:53:02.693Z,3240.00
2022-08-30T05:54:02.685Z,3344.00
2022-08-30T05:55:02.681Z,3520.00
2022-08-30T05:56:02.667Z,3616.00
2022-08-30T05:57:02.658Z,3688.00
2022-08-30T05:58:02.638Z,3724.00
2022-08-30T05:59:02.629Z,3708.00
2022-08-30T06:00:02.618Z,3712.00
2022-08-30T06:01:02.588Z,3680.00
2022-08-30T06:02:02.685Z,3616.00
2022-08-30T06:03:02.625Z,3584.00
2022-08-30T06:04:04.102Z,3656.00
2022-08-30T06:05:02.537Z,3608.00
2022-08-30T06:06:02.527Z,3492.00
2022-08-30T06:07:02.517Z,3712.00
2022-08-30T06:08:02.508Z,4016.00
2022-08-30T06:09:05.880Z,5840.00
2022-08-30T06:10:02.480Z,5548.00
2022-08-30T06:11:02.467Z,4568.00
2022-08-30T06:12:02.457Z,4760.00
2022-08-30T06:13:02.428Z,5072.00
2022-08-30T06:14:02.421Z,7484.00
2022-08-30T06:15:02.407Z,20896.00
2022-08-30T06:16:02.476Z,38432.00
2022-08-30T06:17:02.377Z,43072.00
2022-08-30T06:18:02.373Z,32640.00
2022-08-30T06:19:02.348Z,21152.00
2022-08-30T06:20:02.349Z,16704.00
2022-08-30T06:21:02.339Z,27232.00
2022-08-30T06:22:02.315Z,46944.00
2022-08-30T06:23:02.312Z,53280.00
2022-08-30T06:24:02.289Z,56512.00
2022-08-30T06:25:02.278Z,46912.00
2022-08-30T06:26:02.278Z,22944.00
2022-08-30T06:27:02.249Z,15424.00
2022-08-30T06:28:02.242Z,28896.00
2022-08-30T06:29:02.219Z,50304.00
2022-08-30T06:30:02.391Z,56288.00
2022-08-30T06:31:02.230Z,44672.00
2022-08-30T06:32:02.191Z,26784.00
2022-08-30T06:33:02.168Z,28000.00
2022-08-30T06:34:02.159Z,26400.00
2022-08-30T06:35:02.150Z,31040.00
2022-08-30T06:36:05.729Z,43584.00
2022-08-30T06:37:02.111Z,35424.00
2022-08-30T06:38:02.129Z,25184.00
2022-08-30T06:39:02.091Z,43008.00
2022-08-30T06:40:02.117Z,43680.00
2022-08-30T06:41:02.083Z,28128.00
2022-08-30T06:42:02.050Z,23296.00
2022-08-30T06:43:02.063Z,22112.00
2022-08-30T06:44:02.039Z,35712.00
2022-08-30T06:45:02.024Z,51040.00
2022-08-30T06:46:02.022Z,55264.00
2022-08-30T06:47:02.095Z,42368.00
2022-08-30T06:48:02.018Z,21824.00
2022-08-30T06:49:01.985Z,17696.00
2022-08-30T06:50:01.951Z,34368.00
2022-08-30T06:51:01.942Z,55744.00
2022-08-30T06:52:01.933Z,60544.00
2022-08-30T06:53:02.031Z,47936.00
2022-08-30T06:54:01.895Z,24128.00
2022-08-30T06:55:01.891Z,15488.00
2022-08-30T06:56:01.888Z,34624.00
2022-08-30T06:57:01.894Z,57312.00
2022-08-30T06:58:01.854Z,56768.00
2022-08-30T06:59:01.844Z,40288.00
2022-08-30T07:00:01.825Z,20896.00
2022-08-30T07:01:01.824Z,18112.00
2022-08-30T07:02:01.898Z,30688.00
2022-08-30T07:03:01.824Z,53760.00
2022-08-30T07:04:01.775Z,51136.00
2022-08-30T07:05:01.767Z,31840.00
2022-08-30T07:06:01.767Z,27488.00
2022-08-30T07:07:01.745Z,30432.00
2022-08-30T07:08:01.746Z,32192.00
2022-08-30T07:09:01.807Z,44128.00
2022-08-30T07:10:01.715Z,37888.00
2022-08-30T07:11:01.724Z,29984.00
2022-08-30T07:12:01.696Z,36672.00
2022-08-30T07:13:01.659Z,33760.00
2022-08-30T07:14:01.658Z,30560.00
2022-08-30T07:15:01.641Z,41024.00
2022-08-30T07:16:01.663Z,29696.00
2022-08-30T07:17:01.624Z,43840.00
2022-08-30T07:18:01.629Z,42912.00
2022-08-30T07:19:01.589Z,26656.00
2022-08-30T07:20:01.584Z,28032.00
2022-08-30T07:21:01.579Z,29056.00
2022-08-30T07:22:01.557Z,48960.00
2022-08-30T07:23:01.565Z,55072.00
2022-08-30T07:24:01.537Z,32800.00
2022-08-30T07:25:01.519Z,19136.00
2022-08-30T07:26:01.514Z,23232.00
2022-08-30T07:27:01.488Z,48288.00
2022-08-30T07:28:01.502Z,56256.00
2022-08-30T07:29:01.463Z,44544.00
2022-08-30T07:30:01.452Z,24192.00
2022-08-30T07:31:01.494Z,17568.00
2022-08-30T07:32:01.429Z,39392.00
2022-08-30T07:33:01.431Z,58144.00
2022-08-30T07:34:01.409Z,50496.00
2022-08-30T07:35:01.392Z,22624.00
2022-08-30T07:36:01.419Z,21312.00
2022-08-30T07:37:01.362Z,38400.00
2022-08-30T07:38:01.352Z,59232.00
2022-08-30T07:39:01.355Z,41632.00
2022-08-30T07:40:01.369Z,16384.00
2022-08-30T07:41:01.330Z,28256.00
2022-08-30T07:42:01.303Z,52608.00
2022-08-30T07:43:01.284Z,50560.00
2022-08-30T07:44:01.284Z,30976.00
2022-08-30T07:45:01.274Z,21632.00
2022-08-30T07:46:01.312Z,34400.00
2022-08-30T07:47:01.244Z,52192.00
2022-08-30T07:48:01.248Z,37888.00
2022-08-30T07:49:01.768Z,15136.00
2022-08-30T07:50:01.259Z,6900.00
2022-08-30T07:51:05.173Z,5964.00
2022-08-30T07:52:01.184Z,5680.00
2022-08-30T07:53:01.175Z,5564.00
2022-08-30T07:54:01.167Z,5348.00
2022-08-30T07:55:01.206Z,5216.00
2022-08-30T07:56:01.161Z,5136.00
2022-08-30T07:57:01.129Z,5076.00
2022-08-30T07:59:01.130Z,4964.00
2022-08-30T08:00:01.118Z,4904.00
2022-08-30T08:01:01.086Z,4872.00
2022-08-30T08:02:01.107Z,4820.00
2022-08-30T08:03:01.126Z,4812.00
2022-08-30T08:04:01.040Z,4740.00
2022-08-30T08:05:01.031Z,4612.00
2022-08-30T08:06:01.030Z,4700.00
2022-08-30T08:07:01.010Z,4680.00
2022-08-30T08:08:00.991Z,4664.00
2022-08-30T08:09:00.982Z,4656.00
2022-08-30T08:10:00.991Z,4636.00
2022-08-30T08:11:00.961Z,4616.00
2022-08-30T08:12:00.940Z,4608.00
2022-08-30T08:13:00.929Z,4600.00
2022-08-30T08:14:01.018Z,4616.00
2022-08-30T08:15:02.984Z,4608.00
2022-08-30T08:16:01.924Z,4596.00
2022-08-30T08:17:00.872Z,4512.00
2022-08-30T08:18:00.872Z,4540.00
2022-08-30T08:19:00.861Z,4488.00
2022-08-30T08:20:00.852Z,4460.00
2022-08-30T08:21:00.842Z,4452.00
2022-08-30T08:23:01.813Z,4428.00
2022-08-30T08:24:00.816Z,4436.00
2022-08-30T08:25:00.782Z,4424.00
2022-08-30T08:26:00.786Z,4400.00
2022-08-30T08:27:00.760Z,4360.00
2022-08-30T08:28:00.754Z,4316.00
2022-08-30T08:29:00.734Z,4116.00
2022-08-30T08:30:00.723Z,4188.00
2022-08-30T08:31:00.761Z,4256.00
2022-08-30T08:32:00.695Z,4276.00
2022-08-30T08:33:00.686Z,4288.00
2022-08-30T08:35:00.675Z,4260.00
2022-08-30T08:36:00.668Z,4252.00
2022-08-30T08:37:00.635Z,4240.00
2022-08-30T08:38:00.634Z,4216.00
2022-08-30T08:39:00.636Z,4192.00
2022-08-30T08:40:00.646Z,4172.00
2022-08-30T08:41:00.619Z,4060.00
2022-08-30T08:42:00.577Z,4076.00
2022-08-30T08:43:00.569Z,4092.00
2022-08-30T08:44:00.568Z,4112.00
2022-08-30T08:45:00.567Z,4108.00
2022-08-30T08:46:00.569Z,4096.00
2022-08-30T08:47:00.510Z,4048.00
2022-08-30T08:48:04.110Z,4032.00
2022-08-30T08:49:00.959Z,3972.00
2022-08-30T08:50:00.487Z,3844.00
2022-08-30T08:51:02.539Z,3652.00
2022-08-30T08:52:00.458Z,3900.00
2022-08-30T08:53:00.450Z,3940.00
2022-08-30T08:54:00.431Z,3932.00
2022-08-30T08:55:00.420Z,3880.00
2022-08-30T08:56:00.421Z,3856.00
2022-08-30T08:57:00.390Z,3752.00
2022-08-30T08:58:00.381Z,3752.00
2022-08-30T08:59:00.368Z,3716.00
2022-08-30T09:00:00.378Z,3744.00
2022-08-30T09:01:00.351Z,3596.00
2022-08-30T09:02:00.367Z,3824.00
2022-08-30T09:03:00.310Z,3832.00
2022-08-30T09:04:00.310Z,3828.00
2022-08-30T09:05:00.397Z,3676.00
2022-08-30T09:06:00.290Z,3704.00
2022-08-30T09:07:00.271Z,3780.00
2022-08-30T09:08:00.283Z,3724.00
2022-08-30T09:09:00.241Z,3712.00
2022-08-30T09:10:00.274Z,3656.00
2022-08-30T09:11:00.231Z,3608.00
2022-08-30T09:12:00.202Z,3776.00
2022-08-30T09:13:00.345Z,3720.00
2022-08-30T09:14:00.202Z,3752.00
2022-08-30T09:15:00.174Z,3736.00
2022-08-30T09:16:00.275Z,3784.00
2022-08-30T09:17:02.931Z,3772.00
2022-08-30T09:18:00.140Z,3724.00
2022-08-30T09:19:00.114Z,3688.00
2022-08-30T09:20:00.151Z,3676.00
2022-08-30T09:21:00.104Z,3640.00
2022-08-30T09:22:00.074Z,3604.00
2022-08-30T09:23:00.074Z,3560.00
2022-08-30T09:24:00.097Z,3516.00
2022-08-30T09:25:00.071Z,3488.00
2022-08-30T09:26:00.092Z,3452.00
2022-08-30T09:27:00.016Z,3436.00
2022-08-30T09:28:00.005Z,3440.00
2022-08-30T09:28:59.986Z,3428.00
2022-08-30T09:29:59.995Z,3428.00
2022-08-30T09:31:00.073Z,3380.00
2022-08-30T09:32:24.626Z,3380.00
2022-08-30T09:33:00.961Z,3364.00
2022-08-30T09:33:59.928Z,3392.00
2022-08-30T09:34:59.916Z,3380.00
2022-08-30T09:35:59.919Z,3380.00
2022-08-30T09:36:59.887Z,3356.00
2022-08-30T09:37:59.878Z,3336.00
2022-08-30T09:38:59.867Z,3328.00
2022-08-30T09:39:59.888Z,3384.00
2022-08-30T09:40:59.847Z,3336.00
2022-08-30T09:41:59.830Z,3248.00
2022-08-30T09:42:59.818Z,3276.00
2022-08-30T09:43:59.810Z,3264.00
2022-08-30T09:44:59.789Z,3260.00
2022-08-30T09:45:59.863Z,3296.00
2022-08-30T09:46:59.768Z,3260.00
2022-08-30T09:47:59.768Z,3368.00
2022-08-30T09:48:59.739Z,3388.00
2022-08-30T09:49:59.729Z,3404.00
2022-08-30T09:50:59.729Z,3460.00
2022-08-30T09:51:59.701Z,3428.00
2022-08-30T09:52:59.707Z,3488.00
2022-08-30T09:54:17.626Z,3408.00
2022-08-30T09:55:00.673Z,3376.00
2022-08-30T09:55:59.680Z,3308.00
2022-08-30T09:56:59.641Z,3284.00
2022-08-30T09:57:59.633Z,3160.00
2022-08-30T09:58:59.621Z,3228.00
2022-08-30T09:59:59.601Z,3232.00
2022-08-30T10:00:59.654Z,3264.00
2022-08-30T10:01:59.571Z,3244.00
2022-08-30T10:02:59.572Z,3228.00
2022-08-30T10:03:59.551Z,3176.00
2022-08-30T10:04:59.542Z,3120.00
2022-08-30T10:05:59.542Z,3120.00
2022-08-30T10:06:59.523Z,2988.00
2022-08-30T10:07:59.503Z,3052.00
2022-08-30T10:08:59.511Z,3080.00
2022-08-30T10:09:59.491Z,3028.00
2022-08-30T10:10:59.482Z,3040.00
2022-08-30T10:11:59.455Z,3048.00
2022-08-30T10:12:59.452Z,3080.00
2022-08-30T10:13:59.433Z,3044.00
2022-08-30T10:14:59.426Z,3056.00
2022-08-30T10:15:59.451Z,2988.00
2022-08-30T10:16:59.394Z,2924.00
2022-08-30T10:17:59.384Z,2888.00
2022-08-30T10:18:59.376Z,2848.00
2022-08-30T10:19:59.354Z,2880.00
2022-08-30T10:20:59.364Z,2948.00
2022-08-30T10:21:59.334Z,2984.00
2022-08-30T10:22:59.323Z,2980.00
2022-08-30T10:23:59.403Z,2996.00
2022-08-30T10:24:59.304Z,3008.00
2022-08-30T10:25:59.315Z,2948.00
2022-08-30T10:26:59.285Z,2956.00
2022-08-30T10:27:59.269Z,3036.00
2022-08-30T10:28:59.248Z,3004.00
2022-08-30T10:29:59.248Z,2904.00
2022-08-30T10:30:59.245Z,2892.00
2022-08-30T10:31:59.226Z,2868.00
2022-08-30T10:32:59.209Z,2904.00
2022-08-30T10:33:59.185Z,2932.00
2022-08-30T10:34:59.184Z,2988.00
2022-08-30T10:35:59.167Z,3080.00
2022-08-30T10:36:59.167Z,3108.00
2022-08-30T10:37:59.127Z,3052.00
2022-08-30T10:38:59.127Z,3016.00
2022-08-30T10:39:59.290Z,3036.00
2022-08-30T10:40:59.120Z,3084.00
2022-08-30T10:41:59.092Z,3120.00
2022-08-30T10:42:59.068Z,3148.00
2022-08-30T10:43:59.058Z,3124.00
2022-08-30T10:44:59.059Z,3120.00
2022-08-30T10:45:59.049Z,3156.00
2022-08-30T10:46:59.028Z,3124.00
2022-08-30T10:47:59.010Z,3108.00
2022-08-30T10:48:59.019Z,3084.00
2022-08-30T10:49:58.989Z,3076.00
2022-08-30T10:50:59.000Z,3048.00
2022-08-30T10:51:59.182Z,3004.00
2022-08-30T10:52:58.979Z,3004.00
2022-08-30T10:53:58.950Z,2972.00
2022-08-30T10:54:58.940Z,2960.00
2022-08-30T10:55:58.920Z,3012.00
2022-08-30T10:56:58.900Z,3016.00
2022-08-30T10:57:58.891Z,3056.00
2022-08-30T10:58:58.879Z,3100.00
2022-08-30T10:59:58.860Z,3104.00
2022-08-30T11:00:58.907Z,3136.00
2022-08-30T11:01:58.841Z,3204.00
2022-08-30T11:02:58.854Z,3244.00
2022-08-30T11:03:58.813Z,3280.00
2022-08-30T11:05:00.700Z,3304.00
2022-08-30T11:05:58.782Z,3328.00
2022-08-30T11:06:58.780Z,3396.00
2022-08-30T11:07:58.801Z,3480.00
2022-08-30T11:08:58.761Z,3460.00
2022-08-30T11:09:58.743Z,3404.00
2022-08-30T11:10:58.752Z,3372.00
2022-08-30T11:11:58.713Z,3472.00
2022-08-30T11:12:58.732Z,3408.00
2022-08-30T11:14:01.267Z,3396.00
2022-08-30T11:14:59.693Z,3428.00
2022-08-30T11:15:58.692Z,3400.00
2022-08-30T11:16:58.662Z,3404.00
2022-08-30T11:17:58.644Z,3352.00
2022-08-30T11:18:58.628Z,3300.00
2022-08-30T11:19:58.636Z,3240.00
2022-08-30T11:20:58.603Z,3252.00
2022-08-30T11:21:58.589Z,3248.00
2022-08-30T11:22:58.600Z,3348.00
2022-08-30T11:23:58.564Z,3424.00
2022-08-30T11:24:58.568Z,3404.00
2022-08-30T11:25:58.562Z,3412.00
2022-08-30T11:26:58.550Z,3384.00
2022-08-30T11:27:58.520Z,3344.00
2022-08-30T11:28:58.521Z,3368.00
2022-08-30T11:29:58.495Z,3360.00
2022-08-30T11:30:58.487Z,3352.00
2022-08-30T11:31:58.466Z,3320.00
2022-08-30T11:32:58.456Z,3192.00
2022-08-30T11:33:58.479Z,3308.00
2022-08-30T11:34:58.438Z,3268.00
2022-08-30T11:35:58.417Z,3080.00
2022-08-30T11:36:58.408Z,3216.00
2022-08-30T11:37:58.388Z,3248.00
2022-08-30T11:38:58.388Z,3236.00
2022-08-30T11:39:58.454Z,3220.00
2022-08-30T11:40:59.366Z,3216.00
2022-08-30T11:41:58.339Z,3224.00
2022-08-30T11:42:58.328Z,3244.00
2022-08-30T11:43:58.318Z,3268.00
2022-08-30T11:44:58.318Z,3288.00
2022-08-30T11:45:58.356Z,3188.00
2022-08-30T11:46:58.286Z,3232.00
2022-08-30T11:47:59.419Z,3244.00
2022-08-30T11:48:58.256Z,3148.00
2022-08-30T11:49:58.255Z,3068.00
2022-08-30T11:50:58.247Z,3044.00
2022-08-30T11:52:23.696Z,2984.00
2022-08-30T11:52:59.208Z,2984.00
2022-08-30T11:53:58.190Z,3000.00
2022-08-30T11:54:58.190Z,2864.00
2022-08-30T11:55:58.168Z,3624.00
2022-08-30T11:56:58.161Z,2612.00
2022-08-30T11:57:58.142Z,2020.00
2022-08-30T11:58:58.142Z,1948.00
2022-08-30T11:59:58.130Z,1932.00
2022-08-30T12:00:58.111Z,1932.00
2022-08-30T12:01:58.223Z,1936.00
2022-08-30T12:02:58.530Z,1964.00
2022-08-30T12:03:58.070Z,2824.00
2022-08-30T12:04:58.063Z,2708.00
2022-08-30T12:05:59.737Z,2728.00
2022-08-30T12:06:58.031Z,2736.00
2022-08-30T12:07:58.026Z,2736.00
2022-08-30T12:09:02.931Z,2772.00
2022-08-30T12:09:59.004Z,2764.00
2022-08-30T12:10:57.986Z,2752.00
2022-08-30T12:11:57.973Z,2768.00
2022-08-30T12:12:57.953Z,2776.00
2022-08-30T12:13:57.942Z,2748.00
2022-08-30T12:14:57.949Z,2684.00
2022-08-30T12:15:57.916Z,2236.00
2022-08-30T12:16:57.934Z,2096.00
2022-08-30T12:17:57.909Z,2072.00
2022-08-30T12:18:57.878Z,2200.00
2022-08-30T12:19:57.873Z,2552.00
2022-08-30T12:20:57.853Z,2724.00
2022-08-30T12:21:57.835Z,2740.00
2022-08-30T12:22:57.833Z,2600.00
2022-08-30T12:23:57.814Z,2500.00
2022-08-30T12:24:57.851Z,2668.00
2022-08-30T12:25:57.795Z,2764.00
2022-08-30T12:26:57.794Z,2748.00
2022-08-30T12:28:01.666Z,2756.00
2022-08-30T12:28:58.768Z,2764.00